sensor_id;sensor_type;location;lat;lon;timestamp;P1;durP1;ratioP1;P2;durP2;ratioP2
15526;SDS011;7865;50.918;4.510;2023-02-03T00:03:49;9.03;;;2.97;;
15526;SDS011;7865;50.918;4.510;2023-02-03T00:08:52;7.07;;;2.93;;
15526;SDS011;7865;50.918;4.510;2023-02-03T00:13:56;7.03;;;3.13;;
15526;SDS011;7865;50.918;4.510;2023-02-03T00:18:58;8.03;;;2.63;;
15526;SDS011;7865;50.918;4.510;2023-02-03T00:24:00;3.20;;;2.63;;
15526;SDS011;7865;50.918;4.510;2023-02-03T00:29:02;6.13;;;2.83;;
15526;SDS011;7865;50.918;4.510;2023-02-03T00:34:04;6.90;;;2.80;;
15526;SDS011;7865;50.918;4.510;2023-02-03T00:39:06;11.57;;;3.00;;
15526;SDS011;7865;50.918;4.510;2023-02-03T00:44:09;6.60;;;2.83;;
15526;SDS011;7865;50.918;4.510;2023-02-03T00:49:11;10.47;;;3.00;;
15526;SDS011;7865;50.918;4.510;2023-02-03T00:54:13;9.07;;;2.80;;
15526;SDS011;7865;50.918;4.510;2023-02-03T00:59:15;12.53;;;3.23;;
15526;SDS011;7865;50.918;4.510;2023-02-03T01:04:17;7.37;;;3.30;;
15526;SDS011;7865;50.918;4.510;2023-02-03T01:09:19;6.83;;;2.50;;
15526;SDS011;7865;50.918;4.510;2023-02-03T01:14:21;7.33;;;2.50;;
15526;SDS011;7865;50.918;4.510;2023-02-03T01:19:23;7.87;;;2.10;;
15526;SDS011;7865;50.918;4.510;2023-02-03T01:24:25;7.93;;;2.03;;
15526;SDS011;7865;50.918;4.510;2023-02-03T01:29:27;4.97;;;2.30;;
15526;SDS011;7865;50.918;4.510;2023-02-03T01:34:29;9.37;;;2.00;;
15526;SDS011;7865;50.918;4.510;2023-02-03T01:39:32;8.23;;;1.77;;
15526;SDS011;7865;50.918;4.510;2023-02-03T01:49:51;16.57;;;2.30;;
15526;SDS011;7865;50.918;4.510;2023-02-03T01:55:11;11.43;;;2.13;;
15526;SDS011;7865;50.918;4.510;2023-02-03T02:00:16;7.70;;;1.80;;
15526;SDS011;7865;50.918;4.510;2023-02-03T02:05:22;6.33;;;1.60;;
15526;SDS011;7865;50.918;4.510;2023-02-03T02:10:32;10.53;;;2.50;;
15526;SDS011;7865;50.918;4.510;2023-02-03T02:15:39;4.20;;;1.57;;
15526;SDS011;7865;50.918;4.510;2023-02-03T02:21:12;8.13;;;1.93;;
15526;SDS011;7865;50.918;4.510;2023-02-03T02:26:31;4.57;;;1.67;;
15526;SDS011;7865;50.918;4.510;2023-02-03T02:32:03;8.07;;;2.50;;
15526;SDS011;7865;50.918;4.510;2023-02-03T02:37:18;9.30;;;1.70;;
15526;SDS011;7865;50.918;4.510;2023-02-03T02:42:35;5.33;;;1.30;;
15526;SDS011;7865;50.918;4.510;2023-02-03T02:47:45;10.40;;;1.57;;
15526;SDS011;7865;50.918;4.510;2023-02-03T02:52:47;5.33;;;1.27;;
15526;SDS011;7865;50.918;4.510;2023-02-03T02:57:53;5.80;;;1.33;;
15526;SDS011;7865;50.918;4.510;2023-02-03T03:03:12;7.70;;;3.70;;
15526;SDS011;7865;50.918;4.510;2023-02-03T03:08:17;9.20;;;2.50;;
15526;SDS011;7865;50.918;4.510;2023-02-03T03:13:24;6.57;;;1.50;;
15526;SDS011;7865;50.918;4.510;2023-02-03T03:18:32;3.07;;;0.93;;
15526;SDS011;7865;50.918;4.510;2023-02-03T03:23:38;5.17;;;1.47;;
15526;SDS011;7865;50.918;4.510;2023-02-03T03:28:46;5.00;;;1.23;;
15526;SDS011;7865;50.918;4.510;2023-02-03T03:33:55;5.57;;;1.87;;
15526;SDS011;7865;50.918;4.510;2023-02-03T03:44:29;5.30;;;1.53;;
15526;SDS011;7865;50.918;4.510;2023-02-03T03:49:37;4.40;;;1.37;;
15526;SDS011;7865;50.918;4.510;2023-02-03T03:54:44;7.07;;;1.93;;
15526;SDS011;7865;50.918;4.510;2023-02-03T03:59:47;8.57;;;1.37;;
15526;SDS011;7865;50.918;4.510;2023-02-03T04:04:51;5.73;;;1.23;;
15526;SDS011;7865;50.918;4.510;2023-02-03T04:09:54;4.13;;;1.30;;
15526;SDS011;7865;50.918;4.510;2023-02-03T04:14:56;8.47;;;2.07;;
15526;SDS011;7865;50.918;4.510;2023-02-03T04:19:58;6.10;;;1.20;;
15526;SDS011;7865;50.918;4.510;2023-02-03T04:25:00;7.30;;;1.60;;
15526;SDS011;7865;50.918;4.510;2023-02-03T04:30:02;4.07;;;1.20;;
15526;SDS011;7865;50.918;4.510;2023-02-03T04:35:04;4.03;;;1.30;;
15526;SDS011;7865;50.918;4.510;2023-02-03T04:40:07;9.13;;;1.27;;
15526;SDS011;7865;50.918;4.510;2023-02-03T04:45:10;7.23;;;1.40;;
15526;SDS011;7865;50.918;4.510;2023-02-03T04:50:12;5.90;;;1.17;;
15526;SDS011;7865;50.918;4.510;2023-02-03T04:55:14;4.13;;;0.97;;
15526;SDS011;7865;50.918;4.510;2023-02-03T05:00:16;6.83;;;1.40;;
15526;SDS011;7865;50.918;4.510;2023-02-03T05:05:18;5.07;;;1.50;;
15526;SDS011;7865;50.918;4.510;2023-02-03T05:10:20;5.87;;;1.03;;
15526;SDS011;7865;50.918;4.510;2023-02-03T05:15:22;6.40;;;1.73;;
15526;SDS011;7865;50.918;4.510;2023-02-03T05:20:24;5.57;;;1.37;;
15526;SDS011;7865;50.918;4.510;2023-02-03T05:25:27;4.70;;;1.10;;
15526;SDS011;7865;50.918;4.510;2023-02-03T05:30:29;3.80;;;1.60;;
15526;SDS011;7865;50.918;4.510;2023-02-03T05:35:31;5.03;;;0.73;;
15526;SDS011;7865;50.918;4.510;2023-02-03T05:40:33;2.97;;;1.00;;
15526;SDS011;7865;50.918;4.510;2023-02-03T05:45:53;2.73;;;1.03;;
15526;SDS011;7865;50.918;4.510;2023-02-03T05:50:56;4.77;;;1.00;;
15526;SDS011;7865;50.918;4.510;2023-02-03T05:55:58;4.00;;;1.00;;
15526;SDS011;7865;50.918;4.510;2023-02-03T06:00:59;2.63;;;1.40;;
15526;SDS011;7865;50.918;4.510;2023-02-03T06:06:01;3.73;;;1.47;;
15526;SDS011;7865;50.918;4.510;2023-02-03T06:11:04;4.47;;;1.40;;
15526;SDS011;7865;50.918;4.510;2023-02-03T06:16:06;3.67;;;0.90;;
15526;SDS011;7865;50.918;4.510;2023-02-03T06:21:08;3.63;;;1.10;;
15526;SDS011;7865;50.918;4.510;2023-02-03T06:26:10;7.80;;;1.23;;
15526;SDS011;7865;50.918;4.510;2023-02-03T06:31:12;2.93;;;1.60;;
15526;SDS011;7865;50.918;4.510;2023-02-03T06:36:14;3.40;;;0.90;;
15526;SDS011;7865;50.918;4.510;2023-02-03T06:41:16;5.33;;;1.20;;
15526;SDS011;7865;50.918;4.510;2023-02-03T06:46:18;4.47;;;1.43;;
15526;SDS011;7865;50.918;4.510;2023-02-03T06:51:20;5.60;;;1.40;;
15526;SDS011;7865;50.918;4.510;2023-02-03T06:56:23;10.83;;;0.90;;
15526;SDS011;7865;50.918;4.510;2023-02-03T07:01:25;3.20;;;1.00;;
15526;SDS011;7865;50.918;4.510;2023-02-03T07:06:27;5.50;;;1.40;;
15526;SDS011;7865;50.918;4.510;2023-02-03T07:11:31;4.30;;;1.47;;
15526;SDS011;7865;50.918;4.510;2023-02-03T07:16:33;3.50;;;1.17;;
15526;SDS011;7865;50.918;4.510;2023-02-03T07:21:36;4.53;;;0.90;;
15526;SDS011;7865;50.918;4.510;2023-02-03T07:26:38;3.70;;;1.17;;
15526;SDS011;7865;50.918;4.510;2023-02-03T07:31:40;4.13;;;1.30;;
15526;SDS011;7865;50.918;4.510;2023-02-03T07:36:42;6.27;;;1.60;;
15526;SDS011;7865;50.918;4.510;2023-02-03T07:41:44;3.20;;;1.47;;
15526;SDS011;7865;50.918;4.510;2023-02-03T07:46:47;3.80;;;1.57;;
15526;SDS011;7865;50.918;4.510;2023-02-03T07:51:49;2.70;;;1.03;;
15526;SDS011;7865;50.918;4.510;2023-02-03T07:56:50;9.63;;;1.77;;
15526;SDS011;7865;50.918;4.510;2023-02-03T08:01:52;5.33;;;1.77;;
15526;SDS011;7865;50.918;4.510;2023-02-03T08:06:56;4.33;;;1.00;;
15526;SDS011;7865;50.918;4.510;2023-02-03T08:11:58;5.50;;;1.43;;
15526;SDS011;7865;50.918;4.510;2023-02-03T08:17:00;3.63;;;1.23;;
15526;SDS011;7865;50.918;4.510;2023-02-03T08:22:02;7.20;;;1.20;;
15526;SDS011;7865;50.918;4.510;2023-02-03T08:27:04;7.70;;;1.40;;
15526;SDS011;7865;50.918;4.510;2023-02-03T08:32:10;3.67;;;1.33;;
15526;SDS011;7865;50.918;4.510;2023-02-03T08:37:14;6.77;;;1.00;;
15526;SDS011;7865;50.918;4.510;2023-02-03T08:42:18;6.27;;;1.63;;
15526;SDS011;7865;50.918;4.510;2023-02-03T08:47:20;3.43;;;1.17;;
15526;SDS011;7865;50.918;4.510;2023-02-03T08:52:23;3.60;;;1.20;;
15526;SDS011;7865;50.918;4.510;2023-02-03T08:57:25;5.93;;;1.07;;
15526;SDS011;7865;50.918;4.510;2023-02-03T09:02:27;4.17;;;1.07;;
15526;SDS011;7865;50.918;4.510;2023-02-03T09:07:29;3.47;;;1.17;;
15526;SDS011;7865;50.918;4.510;2023-02-03T09:12:33;2.77;;;1.07;;
15526;SDS011;7865;50.918;4.510;2023-02-03T09:17:35;4.20;;;1.20;;
15526;SDS011;7865;50.918;4.510;2023-02-03T09:22:37;1.97;;;1.10;;
15526;SDS011;7865;50.918;4.510;2023-02-03T09:27:40;5.70;;;1.30;;
15526;SDS011;7865;50.918;4.510;2023-02-03T09:32:42;3.67;;;1.20;;
15526;SDS011;7865;50.918;4.510;2023-02-03T09:37:49;2.50;;;1.70;;
15526;SDS011;7865;50.918;4.510;2023-02-03T09:42:58;4.17;;;1.30;;
15526;SDS011;7865;50.918;4.510;2023-02-03T09:48:13;9.37;;;2.50;;
15526;SDS011;7865;50.918;4.510;2023-02-03T09:53:25;3.70;;;1.47;;
15526;SDS011;7865;50.918;4.510;2023-02-03T09:58:33;2.50;;;1.60;;
15526;SDS011;7865;50.918;4.510;2023-02-03T10:03:37;5.23;;;1.80;;
15526;SDS011;7865;50.918;4.510;2023-02-03T10:14:07;4.53;;;1.97;;
15526;SDS011;7865;50.918;4.510;2023-02-03T10:19:21;4.20;;;1.93;;
15526;SDS011;7865;50.918;4.510;2023-02-03T10:24:41;9.63;;;1.90;;
15526;SDS011;7865;50.918;4.510;2023-02-03T10:29:50;4.23;;;1.63;;
15526;SDS011;7865;50.918;4.510;2023-02-03T10:34:58;5.63;;;2.37;;
15526;SDS011;7865;50.918;4.510;2023-02-03T10:40:02;3.27;;;2.13;;
15526;SDS011;7865;50.918;4.510;2023-02-03T10:45:05;6.97;;;2.50;;
15526;SDS011;7865;50.918;4.510;2023-02-03T10:50:16;5.73;;;2.70;;
15526;SDS011;7865;50.918;4.510;2023-02-03T11:00:28;4.93;;;2.60;;
15526;SDS011;7865;50.918;4.510;2023-02-03T11:05:32;3.47;;;2.20;;
15526;SDS011;7865;50.918;4.510;2023-02-03T11:10:35;6.03;;;2.30;;
15526;SDS011;7865;50.918;4.510;2023-02-03T11:15:43;5.03;;;2.77;;
15526;SDS011;7865;50.918;4.510;2023-02-03T11:20:59;6.70;;;2.70;;
15526;SDS011;7865;50.918;4.510;2023-02-03T11:26:09;4.27;;;2.30;;
15526;SDS011;7865;50.918;4.510;2023-02-03T11:31:22;3.27;;;2.50;;
15526;SDS011;7865;50.918;4.510;2023-02-03T11:36:27;10.13;;;3.00;;
15526;SDS011;7865;50.918;4.510;2023-02-03T11:41:30;7.47;;;3.07;;
15526;SDS011;7865;50.918;4.510;2023-02-03T11:46:38;7.60;;;3.57;;
15526;SDS011;7865;50.918;4.510;2023-02-03T11:51:47;5.33;;;2.40;;
15526;SDS011;7865;50.918;4.510;2023-02-03T12:02:53;2.90;;;2.23;;
15526;SDS011;7865;50.918;4.510;2023-02-03T12:13:56;3.33;;;2.10;;
15526;SDS011;7865;50.918;4.510;2023-02-03T12:19:22;2.93;;;2.13;;
15526;SDS011;7865;50.918;4.510;2023-02-03T12:24:43;2.23;;;2.03;;
15526;SDS011;7865;50.918;4.510;2023-02-03T12:30:14;3.80;;;2.33;;
15526;SDS011;7865;50.918;4.510;2023-02-03T12:35:27;4.60;;;2.70;;
15526;SDS011;7865;50.918;4.510;2023-02-03T12:40:34;5.33;;;2.30;;
15526;SDS011;7865;50.918;4.510;2023-02-03T12:45:50;3.70;;;2.20;;
15526;SDS011;7865;50.918;4.510;2023-02-03T12:51:01;3.43;;;2.70;;
15526;SDS011;7865;50.918;4.510;2023-02-03T12:56:08;7.73;;;1.90;;
15526;SDS011;7865;50.918;4.510;2023-02-03T13:06:40;3.37;;;2.07;;
15526;SDS011;7865;50.918;4.510;2023-02-03T13:12:00;3.97;;;1.97;;
15526;SDS011;7865;50.918;4.510;2023-02-03T13:17:28;3.40;;;1.47;;
15526;SDS011;7865;50.918;4.510;2023-02-03T13:22:38;7.67;;;1.63;;
15526;SDS011;7865;50.918;4.510;2023-02-03T13:43:42;4.80;;;1.83;;
15526;SDS011;7865;50.918;4.510;2023-02-03T13:48:47;4.47;;;1.60;;
15526;SDS011;7865;50.918;4.510;2023-02-03T13:53:50;3.10;;;1.80;;
15526;SDS011;7865;50.918;4.510;2023-02-03T14:04:02;3.67;;;1.60;;
15526;SDS011;7865;50.918;4.510;2023-02-03T14:09:22;3.50;;;2.03;;
15526;SDS011;7865;50.918;4.510;2023-02-03T14:24:52;6.60;;;2.53;;
15526;SDS011;7865;50.918;4.510;2023-02-03T14:35:14;3.97;;;1.73;;
15526;SDS011;7865;50.918;4.510;2023-02-03T14:51:28;3.80;;;1.70;;
15526;SDS011;7865;50.918;4.510;2023-02-03T15:02:18;6.00;;;1.90;;
15526;SDS011;7865;50.918;4.510;2023-02-03T15:07:36;4.80;;;1.80;;
15526;SDS011;7865;50.918;4.510;2023-02-03T15:12:48;4.07;;;1.87;;
15526;SDS011;7865;50.918;4.510;2023-02-03T15:17:53;4.13;;;1.80;;
15526;SDS011;7865;50.918;4.510;2023-02-03T15:22:57;3.13;;;1.80;;
15526;SDS011;7865;50.918;4.510;2023-02-03T15:28:09;5.17;;;1.90;;
15526;SDS011;7865;50.918;4.510;2023-02-03T15:33:16;6.43;;;2.30;;
15526;SDS011;7865;50.918;4.510;2023-02-03T15:38:24;6.57;;;2.00;;
15526;SDS011;7865;50.918;4.510;2023-02-03T15:43:41;5.03;;;2.40;;
15526;SDS011;7865;50.918;4.510;2023-02-03T15:54:00;3.67;;;2.13;;
15526;SDS011;7865;50.918;4.510;2023-02-03T15:59:17;3.73;;;2.40;;
15526;SDS011;7865;50.918;4.510;2023-02-03T16:04:20;6.07;;;2.27;;
15526;SDS011;7865;50.918;4.510;2023-02-03T16:09:27;3.50;;;2.00;;
15526;SDS011;7865;50.918;4.510;2023-02-03T16:14:34;4.47;;;2.90;;
15526;SDS011;7865;50.918;4.510;2023-02-03T16:19:37;5.13;;;2.70;;
15526;SDS011;7865;50.918;4.510;2023-02-03T16:24:41;5.53;;;2.23;;
15526;SDS011;7865;50.918;4.510;2023-02-03T16:29:46;5.50;;;2.70;;
15526;SDS011;7865;50.918;4.510;2023-02-03T16:35:08;4.63;;;2.40;;
15526;SDS011;7865;50.918;4.510;2023-02-03T16:40:30;2.73;;;2.10;;
15526;SDS011;7865;50.918;4.510;2023-02-03T16:45:52;5.13;;;2.43;;
15526;SDS011;7865;50.918;4.510;2023-02-03T16:51:15;2.57;;;1.90;;
15526;SDS011;7865;50.918;4.510;2023-02-03T16:56:17;3.53;;;2.50;;
15526;SDS011;7865;50.918;4.510;2023-02-03T17:01:19;3.03;;;2.40;;
15526;SDS011;7865;50.918;4.510;2023-02-03T17:06:21;4.63;;;2.13;;
15526;SDS011;7865;50.918;4.510;2023-02-03T17:11:23;3.03;;;2.20;;
15526;SDS011;7865;50.918;4.510;2023-02-03T17:16:25;4.03;;;2.17;;
15526;SDS011;7865;50.918;4.510;2023-02-03T17:21:29;4.30;;;2.80;;
15526;SDS011;7865;50.918;4.510;2023-02-03T17:26:31;7.57;;;2.30;;
15526;SDS011;7865;50.918;4.510;2023-02-03T17:31:34;5.07;;;2.20;;
15526;SDS011;7865;50.918;4.510;2023-02-03T17:36:36;4.37;;;2.20;;
15526;SDS011;7865;50.918;4.510;2023-02-03T17:41:38;3.40;;;2.20;;
15526;SDS011;7865;50.918;4.510;2023-02-03T17:46:58;7.30;;;2.40;;
15526;SDS011;7865;50.918;4.510;2023-02-03T17:52:18;5.10;;;2.30;;
15526;SDS011;7865;50.918;4.510;2023-02-03T17:57:38;3.13;;;2.60;;
15526;SDS011;7865;50.918;4.510;2023-02-03T18:02:40;5.70;;;2.50;;
15526;SDS011;7865;50.918;4.510;2023-02-03T18:07:43;4.87;;;2.87;;
15526;SDS011;7865;50.918;4.510;2023-02-03T18:13:25;5.40;;;2.90;;
15526;SDS011;7865;50.918;4.510;2023-02-03T18:18:37;8.00;;;2.97;;
15526;SDS011;7865;50.918;4.510;2023-02-03T18:23:54;9.17;;;2.80;;
15526;SDS011;7865;50.918;4.510;2023-02-03T18:28:58;6.03;;;2.90;;
15526;SDS011;7865;50.918;4.510;2023-02-03T18:34:04;6.83;;;2.73;;
15526;SDS011;7865;50.918;4.510;2023-02-03T18:39:06;6.77;;;2.97;;
15526;SDS011;7865;50.918;4.510;2023-02-03T18:44:11;8.00;;;2.93;;
15526;SDS011;7865;50.918;4.510;2023-02-03T18:49:13;6.87;;;3.40;;
15526;SDS011;7865;50.918;4.510;2023-02-03T18:54:14;6.90;;;2.97;;
15526;SDS011;7865;50.918;4.510;2023-02-03T18:59:15;8.00;;;3.10;;
15526;SDS011;7865;50.918;4.510;2023-02-03T19:04:17;3.23;;;2.73;;
15526;SDS011;7865;50.918;4.510;2023-02-03T19:09:19;5.67;;;3.00;;
15526;SDS011;7865;50.918;4.510;2023-02-03T19:14:22;8.20;;;3.70;;
15526;SDS011;7865;50.918;4.510;2023-02-03T19:19:24;4.93;;;2.90;;
15526;SDS011;7865;50.918;4.510;2023-02-03T19:24:25;9.37;;;4.20;;
15526;SDS011;7865;50.918;4.510;2023-02-03T19:29:27;5.07;;;3.17;;
15526;SDS011;7865;50.918;4.510;2023-02-03T19:34:28;5.83;;;3.57;;
15526;SDS011;7865;50.918;4.510;2023-02-03T19:39:29;4.93;;;3.40;;
15526;SDS011;7865;50.918;4.510;2023-02-03T19:44:32;6.43;;;4.50;;
15526;SDS011;7865;50.918;4.510;2023-02-03T19:49:33;9.70;;;5.30;;
15526;SDS011;7865;50.918;4.510;2023-02-03T19:54:34;6.93;;;4.30;;
15526;SDS011;7865;50.918;4.510;2023-02-03T19:59:36;7.63;;;4.60;;
15526;SDS011;7865;50.918;4.510;2023-02-03T20:04:37;10.57;;;5.30;;
15526;SDS011;7865;50.918;4.510;2023-02-03T20:09:38;11.10;;;5.67;;
15526;SDS011;7865;50.918;4.510;2023-02-03T20:14:40;10.13;;;5.40;;
15526;SDS011;7865;50.918;4.510;2023-02-03T20:19:41;12.03;;;5.70;;
15526;SDS011;7865;50.918;4.510;2023-02-03T20:24:42;16.73;;;7.37;;
15526;SDS011;7865;50.918;4.510;2023-02-03T20:29:43;10.70;;;6.97;;
15526;SDS011;7865;50.918;4.510;2023-02-03T20:34:44;13.30;;;7.20;;
15526;SDS011;7865;50.918;4.510;2023-02-03T20:39:46;10.87;;;6.20;;
15526;SDS011;7865;50.918;4.510;2023-02-03T20:44:47;11.73;;;6.77;;
15526;SDS011;7865;50.918;4.510;2023-02-03T20:49:48;12.67;;;8.77;;
15526;SDS011;7865;50.918;4.510;2023-02-03T20:54:53;11.70;;;8.63;;
15526;SDS011;7865;50.918;4.510;2023-02-03T20:59:55;15.33;;;8.87;;
15526;SDS011;7865;50.918;4.510;2023-02-03T21:04:56;15.33;;;8.73;;
15526;SDS011;7865;50.918;4.510;2023-02-03T21:09:59;17.07;;;8.50;;
15526;SDS011;7865;50.918;4.510;2023-02-03T21:15:01;13.53;;;8.30;;
15526;SDS011;7865;50.918;4.510;2023-02-03T21:20:05;15.23;;;8.90;;
15526;SDS011;7865;50.918;4.510;2023-02-03T21:25:32;17.80;;;9.33;;
15526;SDS011;7865;50.918;4.510;2023-02-03T21:30:33;14.50;;;8.63;;
15526;SDS011;7865;50.918;4.510;2023-02-03T21:35:36;13.37;;;8.77;;
15526;SDS011;7865;50.918;4.510;2023-02-03T21:40:38;15.43;;;8.50;;
15526;SDS011;7865;50.918;4.510;2023-02-03T21:45:43;14.07;;;7.90;;
15526;SDS011;7865;50.918;4.510;2023-02-03T21:50:44;17.77;;;9.50;;
15526;SDS011;7865;50.918;4.510;2023-02-03T21:55:46;12.10;;;7.87;;
15526;SDS011;7865;50.918;4.510;2023-02-03T22:00:48;13.77;;;9.50;;
15526;SDS011;7865;50.918;4.510;2023-02-03T22:05:51;21.90;;;13.17;;
15526;SDS011;7865;50.918;4.510;2023-02-03T22:11:09;15.70;;;10.83;;
15526;SDS011;7865;50.918;4.510;2023-02-03T22:16:10;17.70;;;11.60;;
15526;SDS011;7865;50.918;4.510;2023-02-03T22:21:14;17.77;;;10.73;;
15526;SDS011;7865;50.918;4.510;2023-02-03T22:26:16;20.13;;;11.40;;
15526;SDS011;7865;50.918;4.510;2023-02-03T22:31:18;19.17;;;11.80;;
15526;SDS011;7865;50.918;4.510;2023-02-03T22:36:21;19.20;;;12.00;;
15526;SDS011;7865;50.918;4.510;2023-02-03T22:41:23;17.27;;;10.10;;
15526;SDS011;7865;50.918;4.510;2023-02-03T22:46:25;19.47;;;10.43;;
15526;SDS011;7865;50.918;4.510;2023-02-03T22:51:27;16.73;;;10.10;;
15526;SDS011;7865;50.918;4.510;2023-02-03T22:56:28;18.57;;;9.87;;
15526;SDS011;7865;50.918;4.510;2023-02-03T23:01:30;14.80;;;9.27;;
15526;SDS011;7865;50.918;4.510;2023-02-03T23:06:31;17.50;;;9.67;;
15526;SDS011;7865;50.918;4.510;2023-02-03T23:11:32;14.07;;;8.87;;
15526;SDS011;7865;50.918;4.510;2023-02-03T23:16:33;17.30;;;8.90;;
15526;SDS011;7865;50.918;4.510;2023-02-03T23:21:34;11.00;;;7.87;;
15526;SDS011;7865;50.918;4.510;2023-02-03T23:26:36;15.90;;;8.33;;
15526;SDS011;7865;50.918;4.510;2023-02-03T23:31:37;13.67;;;8.67;;
15526;SDS011;7865;50.918;4.510;2023-02-03T23:36:38;13.60;;;8.20;;
15526;SDS011;7865;50.918;4.510;2023-02-03T23:41:39;14.57;;;7.97;;
15526;SDS011;7865;50.918;4.510;2023-02-03T23:46:41;14.27;;;8.47;;
15526;SDS011;7865;50.918;4.510;2023-02-03T23:51:42;11.37;;;7.93;;
15526;SDS011;7865;50.918;4.510;2023-02-03T23:56:43;12.80;;;8.47;;
